Time;durP1;ratioP1;P1;durP2;ratioP2;P2;SDS_P1;SDS_P2;PMS_P1;PMS_P2;Temp;Humidity;BMP_temperature;BMP_pressure;BME280_temperature;BME280_humidity;BME280_pressure;Samples;Min_cycle;Max_cycle;Signal;HPM_P1;HPM_P2
2022/03/07 00:00:26;;;;;;;;;;;;;;;;;;6208066;23;19978;-87
2022/03/07 00:02:54;;;;;;;;;;;;;;;;;;6209227;23;20122;-87
2022/03/07 00:05:20;;;;;;;;;;;;;;;;;;6209048;23;20349;-87
2022/03/07 00:07:56;;;;;;;;;;;;;;;;;;6208158;23;19916;-87
2022/03/07 00:10:23;;;;;;;;;;;;;;;;;;6178459;23;19924;-87
2022/03/07 00:12:49;;;;;;;;;;;;;;;;;;6153244;23;19948;-87
2022/03/07 00:15:28;;;;;;;;;;;;;;;;;;6128488;23;19935;-87
2022/03/07 00:17:55;;;;;;;;;;;;;;;;;;6153099;23;19923;-87
2022/03/07 00:20:23;;;;;;;;;;;;;;;;;;6153292;23;20019;-87
2022/03/07 00:23:00;;;;;;;;;;;;;;;;;;;;;
2022/03/07 00:25:32;;;;;;;;;;;;;;;;;;6151126;23;19927;-87
2022/03/07 00:28:05;;;;;;;;;;;;;;;;;;6161930;23;20354;-87
2022/03/07 00:30:46;;;;;;;;;;;;;;;;;;6145392;23;20333;-87
2022/03/07 00:33:16;;;;;;;;;;;;;;;;;;6120552;23;19976;-87
2022/03/07 00:35:43;;;;;;;;;;;;;;;;;;6123360;23;20008;-87
2022/03/07 00:38:11;;;;;;;;;;;;;;;;;;6098837;23;19920;-87
2022/03/07 00:40:38;;;;;;;;;;;;;;;;;;6098232;23;20267;-87
2022/03/07 00:43:08;;;;;;;;;;;;;;;;;;6098603;23;19920;-87
2022/03/07 00:45:48;;;;;;;;;;;;;;;;;;;;;
2022/03/07 00:48:24;;;;;;;;;;;;;;;;;;6148985;23;20671;-87
2022/03/07 00:51:01;;;;;;;;;;;;;;;;;;6120841;23;19921;-87
2022/03/07 00:53:29;;;;;;;;;;;;;;;;;;6121730;23;19924;-87
2022/03/07 00:56:16;;;;;;;;;;;;;;;;;;6083294;23;20162;-87
2022/03/07 00:58:58;;;;;;;;;;;;;;;;;;6088048;23;20368;-87
2022/03/07 01:01:24;;;;;;;;;;;;;;;;;;6116530;23;19920;-87
2022/03/07 01:03:52;;;;;;;;;;;;;;;;;;6122923;23;19920;-87
2022/03/07 01:06:19;;;;;;;;;;;;;;;;;;6125562;23;19920;-88
2022/03/07 01:08:46;;;;;;;;;;;;;;;;;;6126150;23;19924;-87
2022/03/07 01:11:12;;;;;;;;;;;;;;;;;;6149291;23;20257;-87
2022/03/07 01:13:48;;;;;;;;;;;;;;;;;;6151755;23;19920;-87
2022/03/07 01:16:16;;;;;;;;;;;;;;;;;;6126336;23;20308;-87
2022/03/07 01:18:43;;;;;;;;;;;;;;;;;;6125755;23;19930;-87
2022/03/07 01:21:11;;;;;;;;;;;;;;;;;;6151320;23;19951;-88
2022/03/07 01:23:37;;;;;;;;;;;;;;;;;;6151426;23;20080;-88
2022/03/07 01:26:10;;;;;;;;;;;;;;;;;;6154538;23;20425;-87
2022/03/07 01:28:37;;;;;;;;;;;;;;;;;;6128596;23;19916;-88
2022/03/07 01:31:04;;;;;;;;;;;;;;;;;;6128225;23;19927;-87
2022/03/07 01:33:30;;;;;;;;;;;;;;;;;;6122856;23;19920;-87
2022/03/07 01:35:56;;;;;;;;;;;;;;;;;;6127014;23;20259;-87
2022/03/07 01:38:23;;;;;;;;;;;;;;;;;;6128198;23;19936;-87
2022/03/07 01:40:50;;;;;;;;;;;;;;;;;;6203009;23;19954;-87
2022/03/07 01:43:17;;;;;;;;;;;;;;;;;;6215093;23;19920;-87
2022/03/07 01:45:45;;;;;;;;;;;;;;;;;;6190456;23;19919;-87
2022/03/07 01:48:27;;;;;;;;;;;;;;;;;;6119592;23;19928;-87
2022/03/07 01:50:58;;;;;;;;;;;;;;;;;;6094627;23;19971;-87
2022/03/07 01:53:24;;;;;;;;;;;;;;;;;;6095152;23;19924;-86
2022/03/07 01:55:51;;;;;;;;;;;;;;;;;;6095384;23;19921;-87
2022/03/07 01:58:21;;;;;;;;;;;;;;;;;;6094742;23;19939;-87
2022/03/07 02:00:50;;;;;;;;;;;;;;;;;;6095436;23;19924;-87
2022/03/07 02:03:22;;;;;;;;;;;;;;;;;;6092817;23;19925;-87
2022/03/07 02:08:52;;;;;;;;;;;;;;;;;;6072184;23;19921;-88
2022/03/07 02:11:19;;;;;;;;;;;;;;;;;;6116763;23;19935;-88
2022/03/07 02:13:52;;;;;;;;;;;;;;;;;;6116061;23;19928;-88
2022/03/07 02:16:21;;;;;;;;;;;;;;;;;;6117849;23;20346;-88
2022/03/07 02:18:48;;;;;;;;;;;;;;;;;;6131039;23;19924;-88
2022/03/07 02:21:15;;;;;;;;;;;;;;;;;;6128893;23;20347;-88
2022/03/07 02:23:43;;;;;;;;;;;;;;;;;;6153820;23;19966;-88
2022/03/07 02:26:10;;;;;;;;;;;;;;;;;;6128998;23;19920;-88
2022/03/07 02:28:36;;;;;;;;;;;;;;;;;;6128403;23;19987;-88
2022/03/07 02:31:03;;;;;;;;;;;;;;;;;;6152703;23;19923;-89
2022/03/07 02:33:34;;;;;;;;;;;;;;;;;;6153032;23;20051;-88
2022/03/07 02:36:01;;;;;;;;;;;;;;;;;;6135683;23;19924;-88
2022/03/07 02:38:32;;;;;;;;;;;;;;;;;;6189204;23;20354;-88
2022/03/07 02:40:59;;;;;;;;;;;;;;;;;;6187191;23;19930;-87
2022/03/07 02:43:29;;;;;;;;;;;;;;;;;;6187924;23;19969;-87
2022/03/07 02:45:58;;;;;;;;;;;;;;;;;;6239715;23;19973;-87
2022/03/07 02:48:24;;;;;;;;;;;;;;;;;;6189564;23;19966;-88
2022/03/07 02:50:58;;;;;;;;;;;;;;;;;;6214974;23;20319;-87
2022/03/07 02:53:24;;;;;;;;;;;;;;;;;;6185325;23;19951;-87
2022/03/07 02:55:53;;;;;;;;;;;;;;;;;;6185998;23;19930;-88
2022/03/07 02:58:19;;;;;;;;;;;;;;;;;;6185168;23;19920;-88
2022/03/07 03:00:45;;;;;;;;;;;;;;;;;;6236117;23;19973;-88
2022/03/07 03:03:12;;;;;;;;;;;;;;;;;;6185503;23;19986;-88
2022/03/07 03:05:43;;;;;;;;;;;;;;;;;;6186720;23;19921;-88
2022/03/07 03:08:20;;;;;;;;;;;;;;;;;;6239756;22;19958;-88
2022/03/07 03:10:49;;;;;;;;;;;;;;;;;;6242379;22;19927;-88
2022/03/07 03:13:36;;;;;;;;;;;;;;;;;;6178537;23;20014;-88
2022/03/07 03:16:05;;;;;;;;;;;;;;;;;;6153579;23;20002;-88
2022/03/07 03:18:39;;;;;;;;;;;;;;;;;;6179052;23;19982;-88
2022/03/07 03:21:06;;;;;;;;;;;;;;;;;;6193300;23;19926;-88
2022/03/07 03:23:34;;;;;;;;;;;;;;;;;;6179997;23;20606;-88
2022/03/07 03:26:04;;;;;;;;;;;;;;;;;;6156588;23;19970;-88
2022/03/07 03:28:30;;;;;;;;;;;;;;;;;;6181464;23;19926;-88
2022/03/07 03:31:00;;;;;;;;;;;;;;;;;;6179739;23;19955;-88
2022/03/07 03:33:27;;;;;;;;;;;;;;;;;;6156901;23;20447;-88
2022/03/07 03:35:53;;;;;;;;;;;;;;;;;;6181768;23;19927;-88
2022/03/07 03:38:21;;;;;;;;;;;;;;;;;;6155986;23;19991;-89
2022/03/07 03:40:48;;;;;;;;;;;;;;;;;;6156525;23;19924;-88
2022/03/07 03:43:14;;;;;;;;;;;;;;;;;;6156661;23;19922;-88
2022/03/07 03:45:54;;;;;;;;;;;;;;;;;;6183828;23;20350;-88
2022/03/07 03:48:21;;;;;;;;;;;;;;;;;;6157458;23;19959;-88
2022/03/07 03:50:47;;;;;;;;;;;;;;;;;;6157582;23;19931;-88
2022/03/07 03:53:15;;;;;;;;;;;;;;;;;;6180884;23;19983;-87
2022/03/07 03:55:45;;;;;;;;;;;;;;;;;;6180599;23;19934;-88
2022/03/07 03:58:11;;;;;;;;;;;;;;;;;;6181065;23;19926;-87
2022/03/07 04:00:37;;;;;;;;;;;;;;;;;;6179771;23;20370;-88
2022/03/07 04:03:05;;;;;;;;;;;;;;;;;;6185970;23;20344;-88
2022/03/07 04:05:32;;;;;;;;;;;;;;;;;;6185638;23;19950;-88
2022/03/07 04:07:59;;;;;;;;;;;;;;;;;;6185465;23;19953;-88
2022/03/07 04:10:25;;;;;;;;;;;;;;;;;;6234330;23;19924;-89
2022/03/07 04:13:03;;;;;;;;;;;;;;;;;;6212908;23;20360;-88
2022/03/07 04:15:34;;;;;;;;;;;;;;;;;;6183256;23;19946;-88
2022/03/07 04:18:01;;;;;;;;;;;;;;;;;;6185661;23;20348;-88
2022/03/07 04:20:28;;;;;;;;;;;;;;;;;;6210060;23;19947;-88
2022/03/07 04:22:54;;;;;;;;;;;;;;;;;;6184210;23;20728;-88
2022/03/07 04:25:21;;;;;;;;;;;;;;;;;;6209816;23;19923;-88
2022/03/07 04:27:48;;;;;;;;;;;;;;;;;;6187088;23;19920;-88
2022/03/07 04:30:21;;;;;;;;;;;;;;;;;;6210736;23;19950;-89
2022/03/07 04:32:59;;;;;;;;;;;;;;;;;;;;;
2022/03/07 04:35:29;;;;;;;;;;;;;;;;;;6232997;23;19998;-88
2022/03/07 04:37:55;;;;;;;;;;;;;;;;;;6238652;23;20753;-87
2022/03/07 04:40:30;;;;;;;;;;;;;;;;;;6241488;23;19973;-87
2022/03/07 04:42:57;;;;;;;;;;;;;;;;;;6188465;23;19995;-88
2022/03/07 04:45:26;;;;;;;;;;;;;;;;;;6127952;23;19970;-88
2022/03/07 04:47:53;;;;;;;;;;;;;;;;;;6175393;23;19920;-88
2022/03/07 04:50:20;;;;;;;;;;;;;;;;;;6175528;23;20375;-88
2022/03/07 04:52:48;;;;;;;;;;;;;;;;;;6151614;23;19952;-88
2022/03/07 04:55:15;;;;;;;;;;;;;;;;;;6177738;23;20361;-88
2022/03/07 04:57:45;;;;;;;;;;;;;;;;;;6179205;23;19938;-88
2022/03/07 05:00:21;;;;;;;;;;;;;;;;;;6156155;23;19992;-87
2022/03/07 05:02:49;;;;;;;;;;;;;;;;;;6129285;23;19923;-88
2022/03/07 05:05:18;;;;;;;;;;;;;;;;;;6179010;23;19970;-88
2022/03/07 05:07:44;;;;;;;;;;;;;;;;;;6151637;23;20281;-88
2022/03/07 05:10:16;;;;;;;;;;;;;;;;;;6150866;23;19920;-88
2022/03/07 05:12:43;;;;;;;;;;;;;;;;;;6150386;23;19928;-88
2022/03/07 05:15:12;;;;;;;;;;;;;;;;;;6122503;23;19981;-89
2022/03/07 05:17:39;;;;;;;;;;;;;;;;;;6240825;22;20336;-88
2022/03/07 05:20:10;;;;;;;;;;;;;;;;;;6217600;22;20612;-88
2022/03/07 05:22:37;;;;;;;;;;;;;;;;;;6217454;22;19919;-88
2022/03/07 05:25:04;;;;;;;;;;;;;;;;;;6243119;22;19926;-88
2022/03/07 05:27:32;;;;;;;;;;;;;;;;;;6218092;22;19919;-88
2022/03/07 05:29:58;;;;;;;;;;;;;;;;;;6218589;22;19922;-88
2022/03/07 05:32:29;;;;;;;;;;;;;;;;;;6243999;22;19965;-88
2022/03/07 05:34:58;;;;;;;;;;;;;;;;;;6245523;22;19919;-88
2022/03/07 05:37:24;;;;;;;;;;;;;;;;;;6242755;22;19927;-88
2022/03/07 05:40:06;;;;;;;;;;;;;;;;;;6155419;23;19920;-88
2022/03/07 05:42:41;;;;;;;;;;;;;;;;;;6151020;23;19920;-89
2022/03/07 05:45:08;;;;;;;;;;;;;;;;;;6126422;23;20045;-88
2022/03/07 05:47:36;;;;;;;;;;;;;;;;;;6127767;23;19921;-88
2022/03/07 05:50:01;;;;;;;;;;;;;;;;;;6177746;23;19916;-88
2022/03/07 05:52:29;;;;;;;;;;;;;;;;;;6178344;23;19962;-88
2022/03/07 05:55:14;;;;;;;;;;;;;;;;;;6176966;23;19919;-88
2022/03/07 05:57:50;;;;;;;;;;;;;;;;;;6133972;23;20458;-88
2022/03/07 06:00:21;;;;;;;;;;;;;;;;;;6145424;23;19924;-88
2022/03/07 06:02:49;;;;;;;;;;;;;;;;;;6151569;23;19983;-88
2022/03/07 06:05:16;;;;;;;;;;;;;;;;;;6150715;23;19920;-88
2022/03/07 06:07:47;;;;;;;;;;;;;;;;;;6151818;23;19920;-88
2022/03/07 06:10:14;;;;;;;;;;;;;;;;;;6163813;22;20285;-89
2022/03/07 06:12:59;;;;;;;;;;;;;;;;;;6271517;22;19927;-89
2022/03/07 06:15:30;;;;;;;;;;;;;;;;;;6246278;22;19923;-89
2022/03/07 06:18:00;;;;;;;;;;;;;;;;;;6220663;22;20115;-88
2022/03/07 06:20:27;;;;;;;;;;;;;;;;;;6220956;22;19947;-89
2022/03/07 06:22:58;;;;;;;;;;;;;;;;;;6221111;22;20364;-89
2022/03/07 06:25:29;;;;;;;;;;;;;;;;;;6220779;22;19915;-88
2022/03/07 06:28:11;;;;;;;;;;;;;;;;;;6232404;23;19923;-88
2022/03/07 06:30:39;;;;;;;;;;;;;;;;;;6243961;22;19927;-88
2022/03/07 06:33:25;;;;;;;;;;;;;;;;;;6183772;23;20010;-88
2022/03/07 06:36:06;;;;;;;;;;;;;;;;;;6127741;23;19967;-88
2022/03/07 06:38:33;;;;;;;;;;;;;;;;;;6099492;23;19924;-88
2022/03/07 06:41:00;;;;;;;;;;;;;;;;;;6100284;23;19916;-88
2022/03/07 06:43:27;;;;;;;;;;;;;;;;;;6099334;23;20003;-88
2022/03/07 06:46:01;;;;;;;;;;;;;;;;;;6147683;23;19921;-88
2022/03/07 06:48:30;;;;;;;;;;;;;;;;;;6097199;23;20317;-90
2022/03/07 06:50:56;;;;;;;;;;;;;;;;;;6096288;23;19947;-90
2022/03/07 06:53:23;;;;;;;;;;;;;;;;;;6097351;23;20003;-89
2022/03/07 06:55:49;;;;;;;;;;;;;;;;;;6096109;23;19932;-90
2022/03/07 06:58:16;;;;;;;;;;;;;;;;;;6094285;23;19927;-89
2022/03/07 07:00:43;;;;;;;;;;;;;;;;;;6094540;23;20334;-90
2022/03/07 07:03:13;;;;;;;;;;;;;;;;;;6119941;23;20012;-90
2022/03/07 07:05:39;;;;;;;;;;;;;;;;;;6144406;23;20646;-89
2022/03/07 07:08:10;;;;;;;;;;;;;;;;;;6168752;23;19915;-90
2022/03/07 07:10:38;;;;;;;;;;;;;;;;;;6154780;23;19932;-90
2022/03/07 07:13:30;;;;;;;;;;;;;;;;;;6120727;23;19928;-91
2022/03/07 07:16:00;;;;;;;;;;;;;;;;;;6120314;23;19924;-90
2022/03/07 07:18:37;;;;;;;;;;;;;;;;;;6178260;23;19928;-88
2022/03/07 07:21:04;;;;;;;;;;;;;;;;;;6147160;23;19920;-90
2022/03/07 07:23:31;;;;;;;;;;;;;;;;;;6176378;23;19974;-89
2022/03/07 07:25:59;;;;;;;;;;;;;;;;;;6151101;23;20011;-90
2022/03/07 07:28:26;;;;;;;;;;;;;;;;;;6170758;23;20359;-88
2022/03/07 07:31:05;;;;;;;;;;;;;;;;;;6149413;23;19920;-88
2022/03/07 07:33:31;;;;;;;;;;;;;;;;;;6175314;23;19919;-89
2022/03/07 07:35:58;;;;;;;;;;;;;;;;;;6149196;23;20153;-89
2022/03/07 07:38:24;;;;;;;;;;;;;;;;;;6175547;23;19919;-91
2022/03/07 07:40:52;;;;;;;;;;;;;;;;;;6149841;23;19924;-89
2022/03/07 07:43:22;;;;;;;;;;;;;;;;;;6174858;23;19920;-89
2022/03/07 07:45:53;;;;;;;;;;;;;;;;;;6155537;23;19952;-89
2022/03/07 07:48:29;;;;;;;;;;;;;;;;;;6149845;23;19920;-89
2022/03/07 07:51:04;;;;;;;;;;;;;;;;;;6147614;23;19959;-89
2022/03/07 07:53:45;;;;;;;;;;;;;;;;;;6120163;23;19925;-88
2022/03/07 07:56:16;;;;;;;;;;;;;;;;;;6155389;23;19936;-89
2022/03/07 07:58:57;;;;;;;;;;;;;;;;;;6175522;23;20000;-88
2022/03/07 08:01:26;;;;;;;;;;;;;;;;;;6147091;23;20349;-88
2022/03/07 08:03:52;;;;;;;;;;;;;;;;;;6121050;23;19921;-89
2022/03/07 08:06:18;;;;;;;;;;;;;;;;;;6123564;23;20355;-88
2022/03/07 08:08:45;;;;;;;;;;;;;;;;;;6100393;23;19920;-88
2022/03/07 08:11:23;;;;;;;;;;;;;;;;;;6149502;23;20765;-90
2022/03/07 08:13:50;;;;;;;;;;;;;;;;;;6126336;23;20050;-89
2022/03/07 08:16:18;;;;;;;;;;;;;;;;;;6101835;23;20003;-89
2022/03/07 08:18:45;;;;;;;;;;;;;;;;;;6126773;23;19928;-89
2022/03/07 08:21:12;;;;;;;;;;;;;;;;;;6102548;23;19920;-89
2022/03/07 08:23:40;;;;;;;;;;;;;;;;;;6124344;23;19924;-89
2022/03/07 08:26:07;;;;;;;;;;;;;;;;;;6091741;23;19983;-89
2022/03/07 08:28:34;;;;;;;;;;;;;;;;;;6093801;23;19966;-90
2022/03/07 08:31:08;;;;;;;;;;;;;;;;;;6172173;23;19920;-90
2022/03/07 08:33:34;;;;;;;;;;;;;;;;;;6155612;23;19920;-91
2022/03/07 08:36:07;;;;;;;;;;;;;;;;;;6262706;22;19927;-91
2022/03/07 08:38:37;;;;;;;;;;;;;;;;;;6244292;22;19916;-92
2022/03/07 08:41:14;;;;;;;;;;;;;;;;;;6241513;22;19915;-90
2022/03/07 08:44:00;;;;;;;;;;;;;;;;;;6188121;23;19938;-91
2022/03/07 08:46:26;;;;;;;;;;;;;;;;;;6210251;23;20332;-90
2022/03/07 08:48:53;;;;;;;;;;;;;;;;;;6210212;23;19995;-92
2022/03/07 08:51:25;;;;;;;;;;;;;;;;;;6211122;23;19916;-90
2022/03/07 08:53:56;;;;;;;;;;;;;;;;;;6210217;23;19923;-91
2022/03/07 08:56:45;;;;;;;;;;;;;;;;;;6210130;23;19924;-90
2022/03/07 08:59:17;;;;;;;;;;;;;;;;;;6208377;23;20006;-89
2022/03/07 09:01:49;;;;;;;;;;;;;;;;;;6207036;23;19916;-89
2022/03/07 09:07:21;;;;;;;;;;;;;;;;;;6109037;23;20070;-90
2022/03/07 09:09:51;;;;;;;;;;;;;;;;;;6094936;23;19932;-91
2022/03/07 09:12:25;;;;;;;;;;;;;;;;;;6118682;23;19934;-90
2022/03/07 09:15:02;;;;;;;;;;;;;;;;;;;;;
2022/03/07 09:17:50;;;;;;;;;;;;;;;;;;6090555;23;19921;-92
2022/03/07 09:20:29;;;;;;;;;;;;;;;;;;6089358;23;19928;-91
2022/03/07 09:22:58;;;;;;;;;;;;;;;;;;6065365;23;19917;-90
2022/03/07 09:25:24;;;;;;;;;;;;;;;;;;6064627;23;19921;-90
2022/03/07 09:28:09;;;;;;;;;;;;;;;;;;6089973;23;19920;-89
2022/03/07 09:30:46;;;;;;;;;;;;;;;;;;6066948;23;19963;-90
2022/03/07 09:33:14;;;;;;;;;;;;;;;;;;6064452;23;19921;-90
2022/03/07 09:35:44;;;;;;;;;;;;;;;;;;6106236;23;20239;-90
2022/03/07 09:38:27;;;;;;;;;;;;;;;;;;6075570;23;19943;-90
2022/03/07 09:41:05;;;;;;;;;;;;;;;;;;6060445;23;20192;-91
2022/03/07 09:43:33;;;;;;;;;;;;;;;;;;6038964;23;20000;-89
2022/03/07 09:45:59;;;;;;;;;;;;;;;;;;6038744;23;19918;-91
2022/03/07 09:48:27;;;;;;;;;;;;;;;;;;6037058;23;20800;-90
2022/03/07 09:50:56;;;;;;;;;;;;;;;;;;6083944;23;20342;-91
2022/03/07 09:53:24;;;;;;;;;;;;;;;;;;6036357;23;19976;-90
2022/03/07 09:55:51;;;;;;;;;;;;;;;;;;6060589;23;20375;-92
2022/03/07 09:58:23;;;;;;;;;;;;;;;;;;6060781;23;19917;-89
2022/03/07 10:00:50;;;;;;;;;;;;;;;;;;6062665;23;19927;-90
2022/03/07 10:03:21;;;;;;;;;;;;;;;;;;6086782;23;19924;-90
2022/03/07 10:05:48;;;;;;;;;;;;;;;;;;6063262;23;19932;-90
2022/03/07 10:08:14;;;;;;;;;;;;;;;;;;6062875;23;20344;-90
2022/03/07 10:10:42;;;;;;;;;;;;;;;;;;6115717;23;19926;-90
2022/03/07 10:13:09;;;;;;;;;;;;;;;;;;6144975;23;19921;-90
2022/03/07 10:15:37;;;;;;;;;;;;;;;;;;6145193;23;19928;-90
2022/03/07 10:18:10;;;;;;;;;;;;;;;;;;6119334;23;19967;-91
2022/03/07 10:20:37;;;;;;;;;;;;;;;;;;6205931;23;19920;-90
2022/03/07 10:23:10;;;;;;;;;;;;;;;;;;6159182;23;19952;-91
2022/03/07 10:25:38;;;;;;;;;;;;;;;;;;6159706;23;20391;-91
2022/03/07 10:28:08;;;;;;;;;;;;;;;;;;6199968;22;19919;-90
2022/03/07 10:30:36;;;;;;;;;;;;;;;;;;6219732;22;19990;-91
2022/03/07 10:33:11;;;;;;;;;;;;;;;;;;6241645;22;20463;-90
2022/03/07 10:35:46;;;;;;;;;;;;;;;;;;6218473;22;21660;-91
2022/03/07 10:38:17;;;;;;;;;;;;;;;;;;6216766;22;19969;-92
2022/03/07 10:40:47;;;;;;;;;;;;;;;;;;6217716;22;19919;-90
2022/03/07 10:43:24;;;;;;;;;;;;;;;;;;6244308;22;19929;-90
2022/03/07 10:45:55;;;;;;;;;;;;;;;;;;6218219;22;19937;-90
2022/03/07 10:48:23;;;;;;;;;;;;;;;;;;6246289;22;20324;-90
2022/03/07 10:51:00;;;;;;;;;;;;;;;;;;;;;
2022/03/07 10:53:31;;;;;;;;;;;;;;;;;;6242104;22;20121;-91
2022/03/07 10:56:10;;;;;;;;;;;;;;;;;;6220109;22;19915;-91
2022/03/07 10:58:41;;;;;;;;;;;;;;;;;;6243338;22;19934;-90
2022/03/07 11:01:08;;;;;;;;;;;;;;;;;;6236589;22;19955;-91
2022/03/07 11:03:47;;;;;;;;;;;;;;;;;;6245678;22;19922;-91
2022/03/07 11:06:15;;;;;;;;;;;;;;;;;;6216580;22;20025;-90
2022/03/07 11:08:43;;;;;;;;;;;;;;;;;;6217914;22;19973;-91
2022/03/07 11:11:11;;;;;;;;;;;;;;;;;;6267710;22;19919;-91
2022/03/07 11:13:37;;;;;;;;;;;;;;;;;;6207378;23;20333;-92
2022/03/07 11:16:07;;;;;;;;;;;;;;;;;;6156898;23;19999;-90
2022/03/07 11:18:38;;;;;;;;;;;;;;;;;;6157564;23;19922;-91
2022/03/07 11:21:20;;;;;;;;;;;;;;;;;;6089266;23;19921;-91
2022/03/07 11:23:57;;;;;;;;;;;;;;;;;;6066860;23;20262;-90
2022/03/07 11:26:23;;;;;;;;;;;;;;;;;;6040173;23;19928;-91
2022/03/07 11:28:57;;;;;;;;;;;;;;;;;;6040384;23;19925;-90
2022/03/07 11:31:39;;;;;;;;;;;;;;;;;;6066434;23;19921;-91
2022/03/07 11:34:15;;;;;;;;;;;;;;;;;;6044221;23;20000;-89
2022/03/07 11:36:47;;;;;;;;;;;;;;;;;;6040373;23;19948;-90
2022/03/07 11:39:15;;;;;;;;;;;;;;;;;;6064389;23;20253;-90
2022/03/07 11:41:41;;;;;;;;;;;;;;;;;;6064638;23;19921;-90
2022/03/07 11:44:10;;;;;;;;;;;;;;;;;;6106356;23;20341;-89
2022/03/07 11:46:51;;;;;;;;;;;;;;;;;;6097896;23;19980;-90
2022/03/07 11:49:21;;;;;;;;;;;;;;;;;;6148375;23;19921;-91
2022/03/07 11:51:52;;;;;;;;;;;;;;;;;;6137110;22;19920;-92
2022/03/07 11:54:20;;;;;;;;;;;;;;;;;;6246168;22;19931;-91
2022/03/07 11:56:46;;;;;;;;;;;;;;;;;;6221239;22;20398;-92
2022/03/07 11:59:13;;;;;;;;;;;;;;;;;;6221261;22;19920;-93
2022/03/07 12:01:40;;;;;;;;;;;;;;;;;;6220256;22;19945;-89
2022/03/07 12:04:08;;;;;;;;;;;;;;;;;;6245864;22;19919;-90
2022/03/07 12:06:36;;;;;;;;;;;;;;;;;;6246711;22;19919;-91
2022/03/07 12:09:03;;;;;;;;;;;;;;;;;;6246865;22;19927;-91
2022/03/07 12:11:42;;;;;;;;;;;;;;;;;;6224483;22;19919;-91
2022/03/07 12:14:10;;;;;;;;;;;;;;;;;;6245953;22;20312;-90
2022/03/07 12:16:37;;;;;;;;;;;;;;;;;;6246497;22;19923;-91
2022/03/07 12:19:05;;;;;;;;;;;;;;;;;;6221029;22;19970;-91
2022/03/07 12:21:33;;;;;;;;;;;;;;;;;;6248023;22;19950;-91
2022/03/07 12:23:59;;;;;;;;;;;;;;;;;;6220686;22;20319;-91
2022/03/07 12:26:25;;;;;;;;;;;;;;;;;;6220886;22;19919;-91
2022/03/07 12:28:55;;;;;;;;;;;;;;;;;;6221732;22;19941;-90
2022/03/07 12:31:37;;;;;;;;;;;;;;;;;;6248561;22;20485;-90
2022/03/07 12:34:06;;;;;;;;;;;;;;;;;;6219732;22;20259;-90
2022/03/07 12:36:33;;;;;;;;;;;;;;;;;;6220802;22;19923;-83
2022/03/07 12:39:00;;;;;;;;;;;;;;;;;;6221228;22;19915;-91
2022/03/07 12:41:27;;;;;;;;;;;;;;;;;;6245802;22;19924;-92
2022/03/07 12:44:08;;;;;;;;;;;;;;;;;;6273084;22;20619;-92
2022/03/07 12:46:35;;;;;;;;;;;;;;;;;;6223191;22;20030;-90
2022/03/07 12:49:01;;;;;;;;;;;;;;;;;;6243344;22;19926;-92
2022/03/07 12:51:30;;;;;;;;;;;;;;;;;;6220454;22;19928;-91
2022/03/07 12:54:17;;;;;;;;;;;;;;;;;;6272564;22;20294;-90
2022/03/07 12:56:47;;;;;;;;;;;;;;;;;;6244730;22;19916;-91
2022/03/07 12:59:13;;;;;;;;;;;;;;;;;;6219901;22;19984;-91
2022/03/07 13:01:41;;;;;;;;;;;;;;;;;;6246094;22;19958;-91
2022/03/07 13:04:11;;;;;;;;;;;;;;;;;;6270412;22;20031;-91
2022/03/07 13:06:48;;;;;;;;;;;;;;;;;;6273765;22;20044;-91
2022/03/07 13:09:19;;;;;;;;;;;;;;;;;;6245441;22;19958;-91
2022/03/07 13:11:48;;;;;;;;;;;;;;;;;;6273495;22;19919;-92
2022/03/07 13:14:22;;;;;;;;;;;;;;;;;;6248443;22;20001;-93
2022/03/07 13:16:54;;;;;;;;;;;;;;;;;;6223925;22;19915;-93
2022/03/07 13:19:20;;;;;;;;;;;;;;;;;;6248344;22;20291;-93
2022/03/07 13:21:50;;;;;;;;;;;;;;;;;;6223226;22;19926;-93
2022/03/07 13:24:17;;;;;;;;;;;;;;;;;;6222205;22;20354;-93
2022/03/07 13:26:44;;;;;;;;;;;;;;;;;;6223362;22;19957;-94
2022/03/07 13:29:15;;;;;;;;;;;;;;;;;;6222974;22;19919;-94
2022/03/07 13:31:57;;;;;;;;;;;;;;;;;;6274395;22;19919;-94
2022/03/07 13:34:24;;;;;;;;;;;;;;;;;;6221818;22;19963;-92
2022/03/07 13:37:05;;;;;;;;;;;;;;;;;;6239873;23;19916;-93
2022/03/07 13:39:50;;;;;;;;;;;;;;;;;;6220481;23;19915;-92
2022/03/07 13:42:22;;;;;;;;;;;;;;;;;;6190053;23;19964;-91
2022/03/07 13:44:58;;;;;;;;;;;;;;;;;;6238555;23;20323;-92
2022/03/07 13:47:25;;;;;;;;;;;;;;;;;;6213898;23;19930;-92
2022/03/07 13:49:52;;;;;;;;;;;;;;;;;;6212445;23;20451;-92
2022/03/07 13:52:38;;;;;;;;;;;;;;;;;;6218825;23;19969;-92
2022/03/07 13:55:07;;;;;;;;;;;;;;;;;;6214955;23;19923;-92
2022/03/07 13:57:34;;;;;;;;;;;;;;;;;;6190361;23;19915;-91
2022/03/07 14:00:00;;;;;;;;;;;;;;;;;;6190319;23;19920;-92
2022/03/07 14:02:28;;;;;;;;;;;;;;;;;;6240779;23;19923;-91
2022/03/07 14:04:54;;;;;;;;;;;;;;;;;;6190101;23;19947;-91
2022/03/07 14:07:20;;;;;;;;;;;;;;;;;;6160774;23;19947;-92
2022/03/07 14:09:47;;;;;;;;;;;;;;;;;;6171775;23;19924;-91
2022/03/07 14:12:14;;;;;;;;;;;;;;;;;;6154505;23;19944;-92
2022/03/07 14:14:41;;;;;;;;;;;;;;;;;;6130762;23;19966;-92
2022/03/07 14:17:07;;;;;;;;;;;;;;;;;;6131021;23;19916;-91
2022/03/07 14:19:36;;;;;;;;;;;;;;;;;;6131177;23;19947;-92
2022/03/07 14:22:04;;;;;;;;;;;;;;;;;;6130573;23;19920;-92
2022/03/07 14:24:31;;;;;;;;;;;;;;;;;;6130467;23;19927;-91
2022/03/07 14:27:03;;;;;;;;;;;;;;;;;;6129589;23;19920;-92
2022/03/07 14:29:31;;;;;;;;;;;;;;;;;;6130565;23;19923;-92
2022/03/07 14:32:00;;;;;;;;;;;;;;;;;;6130146;23;19923;-92
2022/03/07 14:34:39;;;;;;;;;;;;;;;;;;6180251;23;20007;-92
2022/03/07 14:37:06;;;;;;;;;;;;;;;;;;6155501;23;19920;-90
2022/03/07 14:39:34;;;;;;;;;;;;;;;;;;6216411;23;19927;-91
2022/03/07 14:42:03;;;;;;;;;;;;;;;;;;6214823;23;19954;-91
2022/03/07 14:44:36;;;;;;;;;;;;;;;;;;6209987;23;19920;-92
2022/03/07 14:47:04;;;;;;;;;;;;;;;;;;6187862;23;20337;-91
2022/03/07 14:49:33;;;;;;;;;;;;;;;;;;6189393;23;20279;-93
2022/03/07 14:52:00;;;;;;;;;;;;;;;;;;6213323;23;19916;-91
2022/03/07 14:54:27;;;;;;;;;;;;;;;;;;6189270;23;20002;-92
2022/03/07 14:56:53;;;;;;;;;;;;;;;;;;6186620;23;20217;-93
2022/03/07 14:59:25;;;;;;;;;;;;;;;;;;6191691;23;19946;-92
2022/03/07 15:01:53;;;;;;;;;;;;;;;;;;6213762;23;19990;-92
2022/03/07 15:04:20;;;;;;;;;;;;;;;;;;6185982;23;20048;-91
2022/03/07 15:06:52;;;;;;;;;;;;;;;;;;6214056;23;19923;-92
2022/03/07 15:09:19;;;;;;;;;;;;;;;;;;6214163;23;20333;-92
2022/03/07 15:11:50;;;;;;;;;;;;;;;;;;6217780;22;19919;-92
2022/03/07 15:14:20;;;;;;;;;;;;;;;;;;6242468;22;20002;-91
2022/03/07 15:16:53;;;;;;;;;;;;;;;;;;6233001;22;19923;-92
2022/03/07 15:19:20;;;;;;;;;;;;;;;;;;6221517;22;19919;-92
2022/03/07 15:21:52;;;;;;;;;;;;;;;;;;6246838;22;19923;-92
2022/03/07 15:24:20;;;;;;;;;;;;;;;;;;6221714;22;19961;-92
2022/03/07 15:26:54;;;;;;;;;;;;;;;;;;6222447;22;19969;-92
2022/03/07 15:29:22;;;;;;;;;;;;;;;;;;6223425;22;19915;-91
2022/03/07 15:31:49;;;;;;;;;;;;;;;;;;6224085;22;19915;-93
2022/03/07 15:34:24;;;;;;;;;;;;;;;;;;6249674;22;19973;-93
2022/03/07 15:36:50;;;;;;;;;;;;;;;;;;6223156;22;19919;-91
2022/03/07 15:39:17;;;;;;;;;;;;;;;;;;6244999;22;19919;-92
2022/03/07 15:41:59;;;;;;;;;;;;;;;;;;6188421;23;19916;-90
2022/03/07 15:44:35;;;;;;;;;;;;;;;;;;6158201;23;19920;-89
2022/03/07 15:47:02;;;;;;;;;;;;;;;;;;6208574;23;20014;-88
2022/03/07 15:49:31;;;;;;;;;;;;;;;;;;6159293;23;19927;-88
2022/03/07 15:51:58;;;;;;;;;;;;;;;;;;6184303;23;19924;-87
2022/03/07 15:54:24;;;;;;;;;;;;;;;;;;6155340;23;19924;-89
2022/03/07 15:56:53;;;;;;;;;;;;;;;;;;6203957;23;19919;-88
2022/03/07 15:59:25;;;;;;;;;;;;;;;;;;6159389;23;19923;-87
2022/03/07 16:02:08;;;;;;;;;;;;;;;;;;6155966;23;19923;-87
2022/03/07 16:04:49;;;;;;;;;;;;;;;;;;6183883;23;19927;-87
2022/03/07 16:07:19;;;;;;;;;;;;;;;;;;6182170;23;19919;-87
2022/03/07 16:09:49;;;;;;;;;;;;;;;;;;6151096;23;19971;-87
2022/03/07 16:12:22;;;;;;;;;;;;;;;;;;6191475;23;19916;-88
2022/03/07 16:14:56;;;;;;;;;;;;;;;;;;6190355;23;19930;-89
2022/03/07 16:17:33;;;;;;;;;;;;;;;;;;6190307;23;19930;-88
2022/03/07 16:19:59;;;;;;;;;;;;;;;;;;6211212;23;19916;-88
2022/03/07 16:22:25;;;;;;;;;;;;;;;;;;6216182;23;20284;-87
2022/03/07 16:24:52;;;;;;;;;;;;;;;;;;6216003;23;19926;-88
2022/03/07 16:27:20;;;;;;;;;;;;;;;;;;6190187;23;19919;-87
2022/03/07 16:29:47;;;;;;;;;;;;;;;;;;6214836;23;19915;-88
2022/03/07 16:32:14;;;;;;;;;;;;;;;;;;6214041;23;19962;-88
2022/03/07 16:34:41;;;;;;;;;;;;;;;;;;6189566;23;19923;-89
2022/03/07 16:37:09;;;;;;;;;;;;;;;;;;6188546;23;20407;-88
2022/03/07 16:39:36;;;;;;;;;;;;;;;;;;6186735;23;19919;-88
2022/03/07 16:42:06;;;;;;;;;;;;;;;;;;6214596;23;19915;-88
2022/03/07 16:44:34;;;;;;;;;;;;;;;;;;6212973;23;19982;-89
2022/03/07 16:47:13;;;;;;;;;;;;;;;;;;6185908;23;19916;-87
2022/03/07 16:49:50;;;;;;;;;;;;;;;;;;6236959;23;20231;-87
2022/03/07 16:52:17;;;;;;;;;;;;;;;;;;6209118;23;19926;-87
2022/03/07 16:54:44;;;;;;;;;;;;;;;;;;6211117;23;19920;-87
2022/03/07 16:57:15;;;;;;;;;;;;;;;;;;6186796;23;19991;-88
2022/03/07 16:59:42;;;;;;;;;;;;;;;;;;6188383;23;20016;-87
2022/03/07 17:02:14;;;;;;;;;;;;;;;;;;6185682;23;19981;-88
2022/03/07 17:04:44;;;;;;;;;;;;;;;;;;6238504;23;19919;-89
2022/03/07 17:07:10;;;;;;;;;;;;;;;;;;6210410;23;19995;-88
2022/03/07 17:09:36;;;;;;;;;;;;;;;;;;6192055;22;19919;-89
2022/03/07 17:12:02;;;;;;;;;;;;;;;;;;6213381;22;19919;-87
2022/03/07 17:14:28;;;;;;;;;;;;;;;;;;6215846;22;19930;-87